createdAt,value
2019-05-23T00:04:54.693Z,9.93
2019-05-23T00:14:55.349Z,9.89
2019-05-23T00:24:58.774Z,9.95
2019-05-23T00:35:00.016Z,9.59
2019-05-23T00:45:04.871Z,9.57
2019-05-23T00:55:06.808Z,9.61
2019-05-23T01:05:08.670Z,9.69
2019-05-23T01:15:10.255Z,9.59
2019-05-23T01:25:11.081Z,9.44
2019-05-23T01:35:12.613Z,9.30
2019-05-23T01:45:13.520Z,9.29
2019-05-23T01:55:14.299Z,9.25
2019-05-23T02:05:16.997Z,9.16
2019-05-23T02:15:21.812Z,9.06
2019-05-23T02:25:27.536Z,8.93
2019-05-23T02:35:29.402Z,8.96
2019-05-23T02:45:30.780Z,8.99
2019-05-23T02:55:34.633Z,9.05
2019-05-23T03:05:36.172Z,8.99
2019-05-23T03:15:37.821Z,8.77
2019-05-23T03:25:45.177Z,8.36
2019-05-23T03:35:46.295Z,8.62
2019-05-23T03:45:47.080Z,8.06
2019-05-23T03:55:47.890Z,8.18
2019-05-23T04:05:48.733Z,8.92
2019-05-23T04:15:49.535Z,9.00
2019-05-23T04:25:51.334Z,9.32
2019-05-23T04:35:53.000Z,8.67
2019-05-23T04:45:53.653Z,10.04
2019-05-23T04:55:54.322Z,10.73
2019-05-23T05:05:55.223Z,12.12
2019-05-23T05:15:55.903Z,12.09
2019-05-23T05:25:56.593Z,13.49
2019-05-23T05:35:57.274Z,13.65
2019-05-23T05:45:59.065Z,13.40
2019-05-23T05:55:59.881Z,13.17
2019-05-23T06:06:00.750Z,14.78
2019-05-23T06:16:01.517Z,14.01
2019-05-23T06:26:02.187Z,13.57
2019-05-23T06:36:02.998Z,16.03
2019-05-23T06:46:04.177Z,15.45
2019-05-23T06:56:05.851Z,16.43
2019-05-23T07:06:07.291Z,16.84
2019-05-23T07:16:08.189Z,17.27
2019-05-23T07:26:09.123Z,15.91
2019-05-23T07:36:09.811Z,16.96
2019-05-23T07:46:10.496Z,17.25
2019-05-23T07:56:11.245Z,15.87
2019-05-23T08:06:11.936Z,15.67
2019-05-23T08:16:12.562Z,17.01
2019-05-23T08:26:13.299Z,17.05
2019-05-23T08:36:14.055Z,18.11
2019-05-23T08:46:14.714Z,18.33
2019-05-23T08:56:18.804Z,19.49
2019-05-23T09:06:18.048Z,18.40
2019-05-23T09:16:18.727Z,19.21
2019-05-23T09:26:19.664Z,20.15
2019-05-23T09:36:20.488Z,19.91
2019-05-23T09:46:21.453Z,21.62
2019-05-23T09:56:22.124Z,20.76
2019-05-23T10:06:22.833Z,19.58
2019-05-23T10:16:23.493Z,21.27
2019-05-23T10:26:24.172Z,18.51
2019-05-23T10:36:24.871Z,20.83
2019-05-23T10:46:25.636Z,20.56
2019-05-23T10:56:26.305Z,21.05
2019-05-23T11:06:27.059Z,24.08
2019-05-23T11:16:27.766Z,24.73
2019-05-23T11:26:28.463Z,24.00
2019-05-23T11:36:35.327Z,25.02
2019-05-23T11:46:31.947Z,24.02
2019-05-23T11:56:32.579Z,23.93
2019-05-23T12:06:33.270Z,25.62
2019-05-23T12:16:33.998Z,25.03
2019-05-23T12:26:34.660Z,25.87
2019-05-23T12:36:35.327Z,24.26
2019-05-23T12:46:36.014Z,23.92
2019-05-23T12:56:36.750Z,25.11
2019-05-23T13:06:37.823Z,26.52
2019-05-23T13:16:38.499Z,24.96
2019-05-23T13:26:39.239Z,23.79
2019-05-23T13:36:41.037Z,24.51
2019-05-23T13:46:41.688Z,26.00
2019-05-23T13:56:47.207Z,26.37
2019-05-23T14:06:45.035Z,26.76
2019-05-23T14:16:45.689Z,25.74
2019-05-23T14:26:47.554Z,23.44
2019-05-23T14:36:48.296Z,24.04
2019-05-23T14:46:48.974Z,23.55
2019-05-23T14:56:49.770Z,23.13
2019-05-23T15:06:50.533Z,24.43
2019-05-23T15:16:51.200Z,27.44
2019-05-23T15:26:51.884Z,27.67
2019-05-23T15:36:52.536Z,23.24
2019-05-23T15:46:53.232Z,22.86
2019-05-23T15:56:54.015Z,22.31
2019-05-23T16:06:56.314Z,26.04
2019-05-23T16:16:57.365Z,25.91
2019-05-23T16:26:58.200Z,27.45
2019-05-23T16:36:58.969Z,27.69
2019-05-23T16:46:59.749Z,27.24
2019-05-23T16:57:01.564Z,26.17
2019-05-23T17:07:02.216Z,25.06
2019-05-23T17:17:05.643Z,25.76
2019-05-23T17:27:05.457Z,24.42
2019-05-23T17:37:06.341Z,24.97
2019-05-23T17:47:07.003Z,24.76
2019-05-23T17:57:07.740Z,24.86
2019-05-23T18:07:08.550Z,24.27
2019-05-23T18:17:10.198Z,23.98
2019-05-23T18:27:10.923Z,22.73
2019-05-23T18:37:11.715Z,21.55
2019-05-23T18:47:12.374Z,20.70
2019-05-23T18:57:13.047Z,19.44
2019-05-23T19:07:13.798Z,18.88
2019-05-23T19:17:15.647Z,17.86
2019-05-23T19:27:16.317Z,17.37
2019-05-23T19:37:18.209Z,17.16
2019-05-23T19:47:20.951Z,16.94
2019-05-23T19:57:21.772Z,16.66
2019-05-23T20:07:22.889Z,16.86
2019-05-23T20:17:23.643Z,16.87
2019-05-23T20:27:24.418Z,16.81
2019-05-23T20:37:25.252Z,17.15
2019-05-23T20:47:25.906Z,17.18
2019-05-23T20:57:26.804Z,14.97
2019-05-23T21:07:28.742Z,15.36
2019-05-23T21:17:29.524Z,16.01
2019-05-23T21:27:30.253Z,16.42
2019-05-23T21:37:30.995Z,16.43
2019-05-23T21:47:31.760Z,15.69
2019-05-23T21:57:32.437Z,15.55
2019-05-23T22:07:33.615Z,14.48
2019-05-23T22:17:34.313Z,14.20
2019-05-23T22:27:36.923Z,13.93
2019-05-23T22:37:37.592Z,13.74
2019-05-23T22:47:38.283Z,13.93
2019-05-23T22:57:38.896Z,14.11
2019-05-23T23:07:39.664Z,13.74
2019-05-23T23:17:40.541Z,13.42
2019-05-23T23:27:41.216Z,13.16
2019-05-23T23:37:42.115Z,12.60
2019-05-23T23:47:42.902Z,12.52
2019-05-23T23:57:43.617Z,12.57
